Time;durP1;ratioP1;P1;durP2;ratioP2;P2;SDS_P1;SDS_P2;PMS_P1;PMS_P2;Temp;Humidity;BMP_temperature;BMP_pressure;BME280_temperature;BME280_humidity;BME280_pressure;Samples;Min_cycle;Max_cycle;Signal;HPM_P1;HPM_P2
2021/09/17 00:01:11;;;;;;;5.82;3.10;;;14.00;99.90;;;;;;5087429;28;20037;-83
2021/09/17 00:03:37;;;;;;;6.22;3.00;;;14.00;99.90;;;;;;5068915;28;20032;-83
2021/09/17 00:06:03;;;;;;;6.50;2.72;;;14.00;99.90;;;;;;5055868;28;20029;-83
2021/09/17 00:08:29;;;;;;;3.95;2.70;;;14.20;99.90;;;;;;5054945;28;20033;-83
2021/09/17 00:10:55;;;;;;;4.70;3.13;;;14.00;99.90;;;;;;5052785;28;20037;-82
2021/09/17 00:13:20;;;;;;;7.43;2.67;;;13.90;99.90;;;;;;5059692;28;20021;-84
2021/09/17 00:15:46;;;;;;;5.00;2.90;;;13.90;99.90;;;;;;5078423;28;20044;-84
2021/09/17 00:18:12;;;;;;;8.77;3.10;;;13.90;99.90;;;;;;5070037;28;20025;-83
2021/09/17 00:20:38;;;;;;;4.28;2.75;;;14.00;99.90;;;;;;5072576;28;20139;-82
2021/09/17 00:23:03;;;;;;;5.43;2.83;;;13.90;99.90;;;;;;5072524;28;20429;-83
2021/09/17 00:25:29;;;;;;;4.65;3.00;;;13.90;99.90;;;;;;5066899;28;20032;-82
2021/09/17 00:27:55;;;;;;;6.47;2.80;;;13.90;99.90;;;;;;5050830;28;20263;-83
2021/09/17 00:30:23;;;;;;;5.25;2.55;;;13.90;99.90;;;;;;5051311;28;20029;-84
2021/09/17 00:32:48;;;;;;;4.05;2.65;;;13.90;99.90;;;;;;5051145;28;20025;-83
2021/09/17 00:35:14;;;;;;;5.35;2.83;;;13.90;99.90;;;;;;5053849;28;20025;-83
2021/09/17 00:37:39;;;;;;;8.85;2.63;;;13.90;99.90;;;;;;5061562;28;20025;-83
2021/09/17 00:40:05;;;;;;;4.35;2.65;;;13.90;99.90;;;;;;5071966;28;20055;-83
2021/09/17 00:42:35;;;;;;;7.88;3.30;;;14.00;99.90;;;;;;5071243;28;20374;-83
2021/09/17 00:45:02;;;;;;;4.45;2.60;;;14.00;99.90;;;;;;5066938;28;20137;-84
2021/09/17 00:47:28;;;;;;;4.00;2.65;;;14.00;99.90;;;;;;5052237;28;20056;-83
2021/09/17 00:49:53;;;;;;;3.75;2.30;;;14.00;99.90;;;;;;5066928;28;20068;-84
2021/09/17 00:52:19;;;;;;;4.82;2.67;;;14.00;99.90;;;;;;5066089;28;20220;-84
2021/09/17 00:54:45;;;;;;;4.07;2.65;;;14.00;99.90;;;;;;5050679;28;20021;-84
2021/09/17 00:57:11;;;;;;;7.20;3.28;;;14.00;99.90;;;;;;5052149;28;20083;-83
2021/09/17 00:59:37;;;;;;;6.82;2.90;;;14.10;99.90;;;;;;5051749;28;20029;-84
2021/09/17 01:02:03;;;;;;;5.95;2.90;;;14.00;99.90;;;;;;5052538;28;20484;-83
2021/09/17 01:04:30;;;;;;;5.55;2.63;;;14.00;99.90;;;;;;5051158;28;20025;-85
2021/09/17 01:06:55;;;;;;;5.28;2.92;;;14.00;99.90;;;;;;5052624;28;20121;-84
2021/09/17 01:09:21;;;;;;;8.02;3.17;;;14.00;99.90;;;;;;5050368;28;20120;-84
2021/09/17 01:11:47;;;;;;;4.05;2.83;;;14.00;99.90;;;;;;5051568;28;20362;-84
2021/09/17 01:14:13;;;;;;;4.60;2.67;;;14.00;99.90;;;;;;5052254;28;20032;-83
2021/09/17 01:16:38;;;;;;;5.85;2.60;;;14.00;99.90;;;;;;5083011;28;20112;-83
2021/09/17 01:19:04;;;;;;;4.45;2.67;;;13.90;99.90;;;;;;5052129;28;20075;-84
2021/09/17 01:21:30;;;;;;;4.07;2.30;;;13.90;99.90;;;;;;5052505;28;20033;-84
2021/09/17 01:23:55;;;;;;;4.80;2.55;;;14.00;99.90;;;;;;5052335;28;20032;-84
2021/09/17 01:26:21;;;;;;;5.15;2.72;;;13.80;99.90;;;;;;5052266;28;20389;-83
2021/09/17 01:28:47;;;;;;;5.03;2.50;;;13.80;99.90;;;;;;5050797;28;20101;-83
2021/09/17 01:31:12;;;;;;;5.38;2.83;;;13.70;99.90;;;;;;5051100;28;20029;-84
2021/09/17 01:33:38;;;;;;;4.40;3.13;;;13.70;99.90;;;;;;5051452;28;20032;-82
2021/09/17 01:36:09;;;;;;;6.05;3.38;;;13.70;99.90;;;;;;5051985;28;20052;-83
2021/09/17 01:38:37;;;;;;;5.72;3.15;;;13.70;99.90;;;;;;5068789;28;20033;-83
2021/09/17 01:41:03;;;;;;;5.15;2.95;;;13.80;99.90;;;;;;5070583;28;20098;-84
2021/09/17 01:43:29;;;;;;;6.22;3.15;;;13.80;99.90;;;;;;5053506;28;20029;-84
2021/09/17 01:45:55;;;;;;;4.78;2.85;;;13.80;99.90;;;;;;5052084;28;20493;-83
2021/09/17 01:48:21;;;;;;;6.90;3.35;;;13.80;99.90;;;;;;5051925;28;20029;-84
2021/09/17 01:50:47;;;;;;;5.47;3.30;;;13.90;99.90;;;;;;5067799;28;20037;-84
2021/09/17 01:53:13;;;;;;;5.07;3.28;;;13.80;99.90;;;;;;5051117;28;20048;-83
2021/09/17 01:55:38;;;;;;;6.47;3.67;;;13.90;99.90;;;;;;5053051;28;20048;-84
2021/09/17 01:58:04;;;;;;;7.18;3.83;;;13.90;99.90;;;;;;5065170;28;20025;-84
2021/09/17 02:00:30;;;;;;;5.22;3.28;;;13.90;99.90;;;;;;5068970;28;20143;-83
2021/09/17 02:02:56;;;;;;;5.25;3.47;;;13.90;99.90;;;;;;5052760;28;20083;-84
2021/09/17 02:05:21;;;;;;;5.20;3.33;;;13.90;99.90;;;;;;5052611;28;20025;-84
2021/09/17 02:07:47;;;;;;;6.32;3.45;;;13.90;99.90;;;;;;5059487;28;20070;-84
2021/09/17 02:10:14;;;;;;;8.60;3.78;;;13.80;99.90;;;;;;5074920;28;20029;-83
2021/09/17 02:12:42;;;;;;;5.88;3.60;;;13.70;99.90;;;;;;5069464;28;20101;-83
2021/09/17 02:15:09;;;;;;;4.82;3.30;;;13.80;99.90;;;;;;5074367;28;20036;-84
2021/09/17 02:17:35;;;;;;;5.82;3.45;;;13.80;99.90;;;;;;5076254;28;20027;-83
2021/09/17 02:20:01;;;;;;;6.70;3.80;;;13.80;99.90;;;;;;5074048;28;20028;-84
2021/09/17 02:22:27;;;;;;;7.88;4.30;;;13.80;99.90;;;;;;5056448;28;20072;-83
2021/09/17 02:24:53;;;;;;;12.15;4.60;;;13.80;99.90;;;;;;5054544;28;20033;-84
2021/09/17 02:27:19;;;;;;;9.38;5.03;;;13.90;99.90;;;;;;5056153;28;20116;-83
2021/09/17 02:29:44;;;;;;;7.93;4.82;;;13.90;99.90;;;;;;5065558;22;20489;-81
2021/09/17 02:32:11;;;;;;;8.90;5.22;;;13.90;99.90;;;;;;5043521;28;20102;-81
2021/09/17 02:34:37;;;;;;;7.80;5.35;;;13.80;99.90;;;;;;5044923;28;20368;-79
2021/09/17 02:37:03;;;;;;;8.95;5.53;;;13.90;99.90;;;;;;5054937;28;20040;-80
2021/09/17 02:39:29;;;;;;;9.50;5.45;;;13.90;99.90;;;;;;5049372;28;20064;-79
2021/09/17 02:41:54;;;;;;;9.98;5.63;;;13.90;99.90;;;;;;5060034;28;20037;-81
2021/09/17 02:44:20;;;;;;;6.85;4.78;;;13.90;99.90;;;;;;5061901;28;20048;-82
2021/09/17 02:46:45;;;;;;;7.82;5.40;;;13.90;99.90;;;;;;5063447;28;20061;-81
2021/09/17 02:49:11;;;;;;;7.43;5.03;;;13.90;99.90;;;;;;5062827;28;20037;-80
2021/09/17 02:51:37;;;;;;;8.63;5.70;;;13.90;99.90;;;;;;5057170;28;20493;-83
2021/09/17 02:54:02;;;;;;;11.10;7.00;;;14.00;99.90;;;;;;5042898;28;20081;-82
2021/09/17 02:56:28;;;;;;;8.88;5.57;;;13.90;99.90;;;;;;5042949;28;20033;-80
2021/09/17 02:58:54;;;;;;;10.68;5.25;;;13.90;99.90;;;;;;5052696;28;20096;-81
2021/09/17 03:01:19;;;;;;;10.00;4.82;;;13.90;99.90;;;;;;5040899;28;20025;-81
2021/09/17 03:03:45;;;;;;;7.53;5.45;;;14.00;99.90;;;;;;5062655;28;20059;-80
2021/09/17 03:06:10;;;;;;;9.00;5.07;;;14.00;99.90;;;;;;5045042;28;20045;-80
2021/09/17 03:08:36;;;;;;;7.55;5.65;;;14.00;99.90;;;;;;5061647;28;20423;-81
2021/09/17 03:11:02;;;;;;;7.97;4.82;;;13.90;99.90;;;;;;5041436;28;20025;-82
2021/09/17 03:13:28;;;;;;;7.60;4.65;;;13.90;99.90;;;;;;5024259;28;20059;-80
2021/09/17 03:15:55;;;;;;;6.78;4.72;;;14.10;99.90;;;;;;5053724;28;20059;-80
2021/09/17 03:18:21;;;;;;;9.75;4.75;;;13.90;99.90;;;;;;5061298;28;20037;-81
2021/09/17 03:20:50;;;;;;;9.05;4.72;;;14.00;99.90;;;;;;5042888;28;20063;-81
2021/09/17 03:23:16;;;;;;;7.53;4.13;;;14.00;99.90;;;;;;5056131;28;20036;-79
2021/09/17 03:25:42;;;;;;;7.32;4.38;;;14.00;99.90;;;;;;5041959;28;20039;-82
2021/09/17 03:28:08;;;;;;;6.40;4.28;;;14.00;99.90;;;;;;5059733;28;20064;-81
2021/09/17 03:30:33;;;;;;;6.72;4.63;;;14.00;99.90;;;;;;5041718;28;20041;-81
2021/09/17 03:32:59;;;;;;;7.40;4.10;;;14.00;99.90;;;;;;5042000;28;20032;-81
2021/09/17 03:35:25;;;;;;;6.68;4.05;;;14.00;99.90;;;;;;5023584;28;20039;-80
2021/09/17 03:37:51;;;;;;;7.68;4.50;;;13.90;99.90;;;;;;5041231;28;20032;-80
2021/09/17 03:40:17;;;;;;;7.80;4.60;;;14.00;99.90;;;;;;5042161;28;20100;-81
2021/09/17 03:42:43;;;;;;;7.40;4.90;;;13.90;99.90;;;;;;5024935;28;20056;-81
2021/09/17 03:45:10;;;;;;;8.57;5.53;;;13.90;99.90;;;;;;5042885;28;20033;-82
2021/09/17 03:47:36;;;;;;;9.27;5.15;;;13.90;99.90;;;;;;5040753;28;20033;-80
2021/09/17 03:50:02;;;;;;;9.45;5.15;;;13.90;99.90;;;;;;5033239;28;20056;-82
2021/09/17 03:52:27;;;;;;;10.02;5.13;;;13.90;99.90;;;;;;5043571;28;20025;-82
2021/09/17 03:54:53;;;;;;;8.20;5.05;;;13.90;99.90;;;;;;5049198;28;20037;-82
2021/09/17 03:57:19;;;;;;;7.07;4.80;;;14.00;99.90;;;;;;5041619;28;20018;-82
2021/09/17 03:59:44;;;;;;;6.97;4.75;;;14.30;99.90;;;;;;5043451;28;20639;-83
2021/09/17 04:02:10;;;;;;;7.20;4.43;;;13.90;99.90;;;;;;5057129;28;20079;-81
2021/09/17 04:04:36;;;;;;;9.00;4.22;;;13.90;99.90;;;;;;5058852;28;20025;-82
2021/09/17 04:07:02;;;;;;;8.05;4.45;;;13.90;99.90;;;;;;5057176;28;20024;-83
2021/09/17 04:09:27;;;;;;;8.32;4.45;;;13.90;99.90;;;;;;5039490;28;20496;-82
2021/09/17 04:11:54;;;;;;;8.50;4.38;;;13.90;99.90;;;;;;5043299;28;20074;-81
2021/09/17 04:14:20;;;;;;;7.18;4.30;;;13.90;99.90;;;;;;5040420;28;20029;-83
2021/09/17 04:16:48;;;;;;;8.90;4.30;;;13.90;99.90;;;;;;5040519;28;20091;-83
2021/09/17 04:19:23;;;;;;;7.28;4.50;;;13.90;99.90;;;;;;5040118;28;20464;-83
2021/09/17 04:21:49;;;;;;;7.90;4.70;;;13.90;99.90;;;;;;5041599;28;20023;-82
2021/09/17 04:24:14;;;;;;;8.23;4.93;;;13.90;99.90;;;;;;5046251;28;20056;-83
2021/09/17 04:26:40;;;;;;;6.72;4.60;;;13.90;99.90;;;;;;5043532;28;20108;-83
2021/09/17 04:29:06;;;;;;;10.10;4.82;;;14.10;99.90;;;;;;5059967;28;20497;-82
2021/09/17 04:31:32;;;;;;;8.20;4.68;;;13.90;99.90;;;;;;5044007;28;20025;-82
2021/09/17 04:33:59;;;;;;;10.15;4.70;;;13.90;99.90;;;;;;5062453;28;20093;-82
2021/09/17 04:36:25;;;;;;;7.65;4.82;;;13.90;99.90;;;;;;5049056;28;20088;-83
2021/09/17 04:38:51;;;;;;;9.75;5.03;;;13.70;99.90;;;;;;5066971;28;20040;-83
2021/09/17 04:41:17;;;;;;;9.18;4.55;;;13.90;99.90;;;;;;5060049;28;20021;-82
2021/09/17 04:43:43;;;;;;;8.82;5.00;;;13.90;99.90;;;;;;5071396;28;20052;-83
2021/09/17 04:46:29;;;;;;;8.70;5.18;;;13.90;99.90;;;;;;5064878;28;20028;-84
2021/09/17 04:48:56;;;;;;;8.68;4.93;;;13.90;99.90;;;;;;5044589;28;20028;-83
2021/09/17 04:51:26;;;;;;;8.57;4.82;;;13.60;99.90;;;;;;5046558;28;20059;-83
2021/09/17 04:53:52;;;;;;;9.20;4.60;;;14.20;99.90;;;;;;5053471;28;20014;-83
2021/09/17 04:56:18;;;;;;;6.70;4.18;;;13.90;99.90;;;;;;5057348;28;20036;-81
2021/09/17 04:58:44;;;;;;;7.78;5.05;;;13.70;99.90;;;;;;5060748;28;20028;-81
2021/09/17 05:01:10;;;;;;;8.50;4.38;;;13.70;99.90;;;;;;5064910;28;20044;-81
2021/09/17 05:03:36;;;;;;;7.60;4.45;;;13.70;99.90;;;;;;5060609;28;20091;-83
2021/09/17 05:06:02;;;;;;;8.55;5.00;;;13.70;99.90;;;;;;5062402;28;20032;-81
2021/09/17 05:08:27;;;;;;;6.90;4.57;;;13.70;99.90;;;;;;5065460;28;20036;-81
2021/09/17 05:10:53;;;;;;;8.07;4.80;;;13.70;99.90;;;;;;5064756;28;20017;-81
2021/09/17 05:13:18;;;;;;;7.22;4.35;;;13.80;99.90;;;;;;5044341;28;20021;-81
2021/09/17 05:15:44;;;;;;;7.75;4.38;;;13.90;99.90;;;;;;5064842;28;20025;-82
2021/09/17 05:18:10;;;;;;;7.40;4.10;;;13.80;99.90;;;;;;5047454;28;20059;-82
2021/09/17 05:20:35;;;;;;;5.68;3.45;;;13.80;99.90;;;;;;5047127;28;20067;-82
2021/09/17 05:23:01;;;;;;;8.63;4.50;;;13.80;99.90;;;;;;5060685;28;20025;-82
2021/09/17 05:25:27;;;;;;;9.52;4.10;;;13.80;99.90;;;;;;5060171;28;20052;-82
2021/09/17 05:27:53;;;;;;;9.40;4.97;;;13.70;99.90;;;;;;5047958;28;20096;-82
2021/09/17 05:30:18;;;;;;;6.45;4.65;;;13.70;99.90;;;;;;5061384;28;20080;-82
2021/09/17 05:32:44;;;;;;;6.95;4.43;;;13.70;99.90;;;;;;5058515;28;20066;-82
2021/09/17 05:35:10;;;;;;;8.57;4.57;;;13.70;99.90;;;;;;5057028;28;20108;-83
2021/09/17 05:37:36;;;;;;;8.13;4.65;;;13.70;99.90;;;;;;5044213;28;20036;-84
2021/09/17 05:40:04;;;;;;;7.32;4.72;;;13.70;99.90;;;;;;5065785;28;20021;-82
2021/09/17 05:42:30;;;;;;;8.43;4.32;;;13.70;99.90;;;;;;5069239;28;20056;-83
2021/09/17 05:44:55;;;;;;;8.30;4.75;;;13.70;99.90;;;;;;5053288;28;20037;-83
2021/09/17 05:47:21;;;;;;;8.85;4.80;;;13.70;99.90;;;;;;5049598;28;20029;-83
2021/09/17 05:49:47;;;;;;;9.23;4.80;;;13.70;99.90;;;;;;5056582;28;20062;-83
2021/09/17 05:52:12;;;;;;;8.75;5.22;;;13.70;99.90;;;;;;5062302;28;20022;-83
2021/09/17 05:54:39;;;;;;;8.27;5.43;;;13.80;99.90;;;;;;5049612;28;20498;-83
2021/09/17 05:57:05;;;;;;;7.50;4.75;;;13.80;99.90;;;;;;5050044;28;20029;-83
2021/09/17 05:59:30;;;;;;;8.75;4.60;;;13.90;99.90;;;;;;5046692;28;20029;-83
2021/09/17 06:01:56;;;;;;;7.63;4.25;;;13.90;99.90;;;;;;5033716;28;20037;-82
2021/09/17 06:04:22;;;;;;;7.13;4.22;;;13.90;99.90;;;;;;5059231;28;20047;-83
2021/09/17 06:06:48;;;;;;;8.20;4.03;;;14.00;99.90;;;;;;5071566;28;20028;-82
2021/09/17 06:09:13;;;;;;;8.05;4.00;;;14.10;99.90;;;;;;5057799;28;20067;-83
2021/09/17 06:11:39;;;;;;;6.85;4.65;;;14.00;99.90;;;;;;5042130;28;20032;-83
2021/09/17 06:14:05;;;;;;;10.68;4.50;;;14.20;99.90;;;;;;5067179;28;20033;-82
2021/09/17 06:16:33;;;;;;;9.75;4.10;;;14.20;99.90;;;;;;5070028;28;20025;-82
2021/09/17 06:19:02;;;;;;;6.88;3.88;;;14.20;99.90;;;;;;5052212;28;20021;-82
2021/09/17 06:21:30;;;;;;;7.43;4.05;;;14.30;99.90;;;;;;5026041;28;20033;-83
2021/09/17 06:23:56;;;;;;;9.23;3.92;;;14.40;99.90;;;;;;5044919;28;20028;-83
2021/09/17 06:26:21;;;;;;;8.60;3.83;;;14.30;99.90;;;;;;5061600;28;20131;-82
2021/09/17 06:28:47;;;;;;;7.88;4.05;;;14.70;99.90;;;;;;5053859;28;20024;-82
2021/09/17 06:31:13;;;;;;;8.18;3.30;;;14.40;99.90;;;;;;5064583;28;20048;-82
2021/09/17 06:33:38;;;;;;;9.05;3.63;;;14.40;99.90;;;;;;5065261;28;20079;-82
2021/09/17 06:36:04;;;;;;;6.78;3.85;;;14.40;99.90;;;;;;5044169;28;20057;-83
2021/09/17 06:38:29;;;;;;;7.57;4.07;;;14.50;99.90;;;;;;5064455;28;20088;-83
2021/09/17 06:40:55;;;;;;;8.57;4.25;;;14.40;99.90;;;;;;5067321;28;20029;-82
2021/09/17 06:43:21;;;;;;;7.95;3.92;;;14.50;99.90;;;;;;5068089;28;20104;-82
2021/09/17 06:45:46;;;;;;;6.50;4.20;;;14.50;99.90;;;;;;5046922;28;20033;-83
2021/09/17 06:48:12;;;;;;;7.03;4.13;;;14.60;99.90;;;;;;5046538;28;20033;-82
2021/09/17 06:50:38;;;;;;;6.15;4.32;;;14.60;99.90;;;;;;5062678;28;20040;-82
2021/09/17 06:53:04;;;;;;;9.00;4.60;;;14.60;99.90;;;;;;5066548;28;20029;-83
2021/09/17 06:55:31;;;;;;;6.95;4.47;;;14.60;99.90;;;;;;5049821;28;20036;-83
2021/09/17 06:57:59;;;;;;;8.02;4.63;;;14.60;99.90;;;;;;5048875;28;20035;-84
2021/09/17 07:00:27;;;;;;;9.15;5.28;;;14.60;99.90;;;;;;5067635;28;20033;-83
2021/09/17 07:02:54;;;;;;;8.18;4.70;;;14.60;99.90;;;;;;5046723;28;20371;-83
2021/09/17 07:05:22;;;;;;;10.65;5.55;;;14.60;99.90;;;;;;5047176;28;20030;-83
2021/09/17 07:07:48;;;;;;;9.75;5.30;;;14.80;99.90;;;;;;5046258;28;20025;-83
2021/09/17 07:10:16;;;;;;;9.32;5.15;;;14.60;99.90;;;;;;5029167;28;20029;-83
2021/09/17 07:12:42;;;;;;;11.15;5.57;;;14.70;99.90;;;;;;5065550;28;20119;-83
2021/09/17 07:15:09;;;;;;;8.05;5.55;;;14.70;99.90;;;;;;5060698;28;20017;-83
2021/09/17 07:17:34;;;;;;;9.93;5.50;;;14.70;99.90;;;;;;5060863;28;20029;-83
2021/09/17 07:20:00;;;;;;;11.27;5.95;;;14.80;99.90;;;;;;5055764;28;20090;-83
2021/09/17 07:22:27;;;;;;;11.05;6.25;;;14.80;99.90;;;;;;5047103;28;20090;-83
2021/09/17 07:24:53;;;;;;;11.30;6.53;;;14.90;99.90;;;;;;5045388;28;20598;-83
2021/09/17 07:27:19;;;;;;;9.55;6.20;;;14.90;99.90;;;;;;5040752;28;20482;-82
2021/09/17 07:29:45;;;;;;;8.85;5.78;;;14.90;99.90;;;;;;5034856;28;20412;-81
2021/09/17 07:32:11;;;;;;;9.48;5.70;;;14.90;99.90;;;;;;5060552;28;20021;-81
2021/09/17 07:34:36;;;;;;;8.13;5.55;;;15.30;99.90;;;;;;5059411;28;20087;-82
2021/09/17 07:37:02;;;;;;;10.00;5.82;;;15.20;99.90;;;;;;5057772;28;20109;-83
2021/09/17 07:39:28;;;;;;;12.15;6.10;;;15.20;99.90;;;;;;5058563;28;20104;-84
2021/09/17 07:41:54;;;;;;;9.68;6.50;;;15.30;99.90;;;;;;5042786;28;20039;-81
2021/09/17 07:44:20;;;;;;;10.98;5.95;;;15.30;99.90;;;;;;5047875;28;20025;-83
2021/09/17 07:46:45;;;;;;;13.25;5.43;;;15.20;99.90;;;;;;5065497;28;20028;-81
2021/09/17 07:49:11;;;;;;;9.77;5.90;;;15.40;99.90;;;;;;5065184;28;20036;-84
2021/09/17 07:51:37;;;;;;;12.32;6.05;;;15.40;99.90;;;;;;5047967;28;20033;-82
2021/09/17 07:54:02;;;;;;;11.68;6.07;;;15.40;99.90;;;;;;5028679;28;20029;-83
2021/09/17 07:56:28;;;;;;;13.60;6.38;;;15.50;99.90;;;;;;5047066;28;20075;-83
2021/09/17 07:58:57;;;;;;;12.98;7.50;;;15.60;99.90;;;;;;5065249;28;20081;-81
2021/09/17 08:01:22;;;;;;;11.57;6.50;;;15.50;99.90;;;;;;5046477;28;20030;-80
2021/09/17 08:03:48;;;;;;;11.65;7.82;;;15.90;99.90;;;;;;5046354;28;20032;-83
2021/09/17 08:06:15;;;;;;;14.55;7.30;;;15.70;99.90;;;;;;5046698;28;20032;-82
2021/09/17 08:08:41;;;;;;;11.68;6.80;;;15.90;99.90;;;;;;5028343;28;20033;-81
2021/09/17 08:11:07;;;;;;;13.50;7.00;;;16.00;99.90;;;;;;5029157;28;20116;-83
2021/09/17 08:13:33;;;;;;;15.85;8.07;;;16.10;99.90;;;;;;5046797;28;20044;-82
2021/09/17 08:15:59;;;;;;;10.18;7.00;;;16.20;99.90;;;;;;5058878;28;20025;-82
2021/09/17 08:18:25;;;;;;;11.43;6.60;;;16.40;99.90;;;;;;5065971;28;20084;-82
2021/09/17 08:20:53;;;;;;;11.68;7.50;;;16.30;99.90;;;;;;5029222;28;20021;-82
2021/09/17 08:23:22;;;;;;;11.85;6.90;;;16.40;99.90;;;;;;5028872;28;20375;-83
2021/09/17 08:25:52;;;;;;;12.68;7.82;;;16.50;99.90;;;;;;5043384;28;20573;-80
2021/09/17 08:28:18;;;;;;;10.48;6.88;;;16.70;99.90;;;;;;5062434;28;20020;-81
2021/09/17 08:30:44;;;;;;;10.77;6.72;;;16.80;99.90;;;;;;5064953;28;20021;-83
2021/09/17 08:33:09;;;;;;;12.13;7.00;;;16.80;99.90;;;;;;5063496;28;20109;-82
2021/09/17 08:35:35;;;;;;;11.35;6.63;;;16.90;99.90;;;;;;5061959;28;20599;-81
2021/09/17 08:38:01;;;;;;;11.15;7.18;;;17.00;99.90;;;;;;5064251;28;20047;-81
2021/09/17 08:40:30;;;;;;;11.50;7.13;;;17.30;99.90;;;;;;5046995;28;20055;-83
2021/09/17 08:42:59;;;;;;;10.73;6.90;;;17.20;99.90;;;;;;5060548;28;20386;-83
2021/09/17 08:45:26;;;;;;;11.98;7.45;;;17.20;99.90;;;;;;5041378;28;20020;-80
2021/09/17 08:47:54;;;;;;;12.15;7.68;;;17.20;99.90;;;;;;5046442;28;20021;-81
2021/09/17 08:50:24;;;;;;;14.48;6.50;;;17.10;99.90;;;;;;5061284;28;20025;-81
2021/09/17 08:52:49;;;;;;;8.60;6.30;;;17.20;99.90;;;;;;5045947;28;20020;-80
2021/09/17 08:55:15;;;;;;;12.13;6.55;;;17.20;99.90;;;;;;5065624;28;20055;-81
2021/09/17 08:57:48;;;;;;;9.82;6.07;;;17.40;99.90;;;;;;5050126;28;20017;-79
2021/09/17 09:00:26;;;;;;;9.95;6.25;;;17.50;99.90;;;;;;5064614;28;20025;-80
2021/09/17 09:02:56;;;;;;;10.38;6.20;;;17.50;99.90;;;;;;5058089;28;20029;-79
2021/09/17 09:05:28;;;;;;;9.95;6.28;;;17.70;99.90;;;;;;5047231;28;20025;-81
2021/09/17 09:07:54;;;;;;;11.25;7.05;;;17.70;99.90;;;;;;5064939;28;20495;-83
2021/09/17 09:10:21;;;;;;;11.18;7.40;;;17.80;99.90;;;;;;5045144;28;20226;-82
2021/09/17 09:12:50;;;;;;;10.98;7.25;;;17.70;99.90;;;;;;5026794;28;20055;-83
2021/09/17 09:15:21;;;;;;;12.57;7.47;;;17.80;99.90;;;;;;5046372;28;20470;-82
2021/09/17 09:17:48;;;;;;;11.73;8.13;;;17.70;99.90;;;;;;5041791;28;20060;-83
2021/09/17 09:20:36;;;;;;;13.70;8.30;;;17.60;99.90;;;;;;5047766;28;20130;-83
2021/09/17 09:23:12;;;;;;;13.18;7.60;;;17.60;99.90;;;;;;5064066;28;20041;-80
2021/09/17 09:25:47;;;;;;;12.15;8.80;;;17.70;99.90;;;;;;5049219;28;20287;-82
2021/09/17 09:28:16;;;;;;;12.02;7.72;;;17.70;99.90;;;;;;5052178;28;20100;-81
2021/09/17 09:30:42;;;;;;;14.45;8.65;;;17.80;99.90;;;;;;5070022;28;20311;-82
2021/09/17 09:33:31;;;;;;;13.43;8.38;;;17.90;99.90;;;;;;5054357;28;20072;-83
2021/09/17 09:36:06;;;;;;;13.38;7.90;;;18.10;99.90;;;;;;5070115;28;20021;-83
2021/09/17 09:38:40;;;;;;;10.80;7.65;;;18.10;99.90;;;;;;5046991;28;20031;-82
2021/09/17 09:41:08;;;;;;;10.10;8.02;;;18.20;99.90;;;;;;5064199;28;20060;-82
2021/09/17 09:43:41;;;;;;;10.90;7.97;;;18.30;99.90;;;;;;5045024;28;20041;-81
2021/09/17 09:46:37;;;;;;;11.40;7.95;;;18.50;99.90;;;;;;5056544;28;20081;-83
2021/09/17 09:49:25;;;;;;;11.40;7.22;;;18.50;99.90;;;;;;5061961;28;20021;-84
2021/09/17 09:51:52;;;;;;;10.88;6.68;;;18.70;99.90;;;;;;5064875;28;20109;-84
2021/09/17 09:54:19;;;;;;;11.20;7.07;;;18.80;99.90;;;;;;5067047;28;20017;-83
2021/09/17 09:56:45;;;;;;;7.95;5.13;;;18.80;99.90;;;;;;5045521;28;20024;-81
2021/09/17 09:59:12;;;;;;;8.88;5.20;;;18.60;99.90;;;;;;5047325;28;20079;-83
2021/09/17 10:01:39;;;;;;;8.48;6.18;;;18.70;99.90;;;;;;5066731;28;20378;-82
2021/09/17 10:04:06;;;;;;;9.75;6.50;;;18.90;99.90;;;;;;5065892;28;20022;-83
2021/09/17 10:06:36;;;;;;;10.45;6.50;;;19.00;99.90;;;;;;5064683;28;20025;-82
2021/09/17 10:09:07;;;;;;;8.52;6.28;;;18.80;99.90;;;;;;5059332;28;20057;-82
2021/09/17 10:11:33;;;;;;;10.07;5.67;;;18.80;99.90;;;;;;5063711;28;20919;-84
2021/09/17 10:14:01;;;;;;;7.22;4.90;;;19.00;99.90;;;;;;5038698;28;20275;-78
2021/09/17 10:16:29;;;;;;;7.78;5.15;;;19.00;99.90;;;;;;5043266;28;20021;-82
2021/09/17 10:18:56;;;;;;;8.27;5.30;;;19.10;99.90;;;;;;5059971;28;20484;-83
2021/09/17 10:22:00;;;;;;;8.00;5.07;;;19.30;99.90;;;;;;5065973;28;20467;-84
2021/09/17 10:24:26;;;;;;;8.95;5.30;;;19.20;99.90;;;;;;5038534;28;20029;-83
2021/09/17 10:27:23;;;;;;;7.70;5.80;;;19.50;99.90;;;;;;5064637;28;20040;-82
2021/09/17 10:29:57;;;;;;;7.82;5.63;;;19.60;99.90;;;;;;5063057;28;20539;-82
2021/09/17 10:32:34;;;;;;;9.43;5.80;;;19.70;99.90;;;;;;5056887;28;20017;-79
2021/09/17 10:35:04;;;;;;;9.32;5.35;;;19.80;99.90;;;;;;5059808;28;20032;-82
2021/09/17 10:37:50;;;;;;;11.25;5.57;;;19.80;99.90;;;;;;5058836;28;20032;-81
2021/09/17 10:40:16;;;;;;;8.45;4.75;;;19.80;99.90;;;;;;5017643;28;20821;-81
2021/09/17 10:43:10;;;;;;;7.53;5.13;;;19.80;99.90;;;;;;5062401;28;20025;-81
2021/09/17 10:45:43;;;;;;;7.93;4.40;;;19.90;99.90;;;;;;5064663;28;20496;-82
2021/09/17 10:48:10;;;;;;;6.75;4.75;;;19.70;99.90;;;;;;5063168;28;20453;-81
2021/09/17 10:50:40;;;;;;;7.72;4.53;;;19.60;99.90;;;;;;5029380;28;20033;-82
2021/09/17 10:53:06;;;;;;;6.37;3.57;;;19.70;99.90;;;;;;5064462;28;20027;-83
2021/09/17 10:55:44;;;;;;;4.55;2.20;;;19.80;99.90;;;;;;5042578;28;20059;-82
2021/09/17 10:58:26;;;;;;;5.28;3.13;;;19.80;99.90;;;;;;5054914;28;20056;-80
2021/09/17 11:01:02;;;;;;;5.95;2.50;;;20.00;99.90;;;;;;5054809;28;20627;-80
2021/09/17 11:03:46;;;;;;;6.43;2.10;;;20.10;99.90;;;;;;5041326;28;20025;-84
2021/09/17 11:06:22;;;;;;;3.95;1.80;;;20.20;99.90;;;;;;5039403;28;20447;-83
2021/09/17 11:08:57;;;;;;;5.97;2.20;;;20.30;99.90;;;;;;5055615;28;20017;-83
2021/09/17 11:11:23;;;;;;;4.80;2.08;;;20.60;99.90;;;;;;5058550;28;20026;-81
2021/09/17 11:13:50;;;;;;;4.15;2.28;;;21.30;99.90;;;;;;5043539;28;20018;-81
2021/09/17 11:16:17;;;;;;;4.03;2.20;;;21.70;99.90;;;;;;5059250;28;20492;-79
2021/09/17 11:19:00;;;;;;;4.35;1.98;;;21.70;98.10;;;;;;5041366;28;20024;-81
2021/09/17 11:21:30;;;;;;;4.30;1.70;;;21.40;97.50;;;;;;5044001;28;20365;-81
2021/09/17 11:23:57;;;;;;;3.93;1.27;;;21.20;97.50;;;;;;5042771;28;20033;-81
2021/09/17 11:26:30;;;;;;;4.03;1.63;;;21.10;96.90;;;;;;5060236;28;20024;-83
2021/09/17 11:29:07;;;;;;;2.97;1.33;;;21.00;97.40;;;;;;5040469;28;20029;-82
2021/09/17 11:31:35;;;;;;;3.28;1.70;;;20.70;97.20;;;;;;5057241;28;20143;-82
2021/09/17 11:34:06;;;;;;;3.40;1.20;;;20.50;97.60;;;;;;5061769;28;20024;-81
2021/09/17 11:36:50;;;;;;;2.97;1.52;;;20.20;96.80;;;;;;5067652;28;20025;-81
2021/09/17 11:39:31;;;;;;;2.05;1.05;;;20.10;96.40;;;;;;5055891;28;20021;-81
2021/09/17 11:42:00;;;;;;;;;;;19.80;95.30;;;;;;5059906;28;20040;-82
2021/09/17 11:44:48;;;;;;;4.78;2.03;;;19.60;96.90;;;;;;5037747;28;19976;-83
2021/09/17 11:47:20;;;;;;;4.10;2.50;;;19.40;97.70;;;;;;5057767;28;20045;-82
2021/09/17 11:49:46;;;;;;;8.68;3.60;;;19.40;99.60;;;;;;5060389;28;20025;-82
2021/09/17 11:52:15;;;;;;;5.95;3.50;;;19.30;99.90;;;;;;5059899;28;20946;-81
2021/09/17 11:55:02;;;;;;;6.50;3.30;;;19.20;99.90;;;;;;5040366;28;20029;-81
2021/09/17 11:57:39;;;;;;;7.65;3.35;;;19.20;99.90;;;;;;5058461;28;20017;-82
2021/09/17 12:00:12;;;;;;;4.68;2.95;;;19.30;99.90;;;;;;5060689;28;20036;-83
2021/09/17 12:02:38;;;;;;;5.03;2.22;;;19.30;99.90;;;;;;5061348;28;20097;-82
2021/09/17 12:05:14;;;;;;;3.85;2.13;;;19.40;99.90;;;;;;5065831;28;20093;-83
2021/09/17 12:07:40;;;;;;;4.40;2.30;;;19.50;99.90;;;;;;5065375;28;20036;-84
2021/09/17 12:10:18;;;;;;;3.50;1.67;;;19.50;99.90;;;;;;5061068;28;20048;-84
2021/09/17 12:12:46;;;;;;;4.68;1.90;;;19.50;99.50;;;;;;5066696;28;20044;-81
2021/09/17 12:15:14;;;;;;;6.20;1.60;;;19.40;99.50;;;;;;5067141;28;20073;-82
2021/09/17 12:17:56;;;;;;;3.78;1.77;;;19.50;99.40;;;;;;5065884;28;20071;-82
2021/09/17 12:20:22;;;;;;;3.85;1.80;;;19.50;99.90;;;;;;5045499;28;20036;-82
2021/09/17 12:22:56;;;;;;;4.50;1.90;;;19.70;99.90;;;;;;5060724;28;20100;-82
2021/09/17 12:25:30;;;;;;;3.58;1.40;;;19.90;99.10;;;;;;5047609;28;20036;-81
2021/09/17 12:28:07;;;;;;;3.20;1.50;;;19.90;98.20;;;;;;5044024;28;20025;-80
2021/09/17 12:30:35;;;;;;;3.22;1.30;;;19.90;98.10;;;;;;5066026;28;20029;-80
2021/09/17 12:33:15;;;;;;;3.35;1.45;;;19.90;97.00;;;;;;5065566;28;20033;-80
2021/09/17 12:35:47;;;;;;;4.63;1.63;;;20.10;97.60;;;;;;5058142;28;20033;-82
2021/09/17 12:38:16;;;;;;;3.65;1.65;;;20.10;98.40;;;;;;5059150;28;20028;-81
2021/09/17 12:40:44;;;;;;;4.90;1.50;;;20.20;98.50;;;;;;5042805;28;20057;-81
2021/09/17 12:43:22;;;;;;;2.92;1.40;;;20.30;97.50;;;;;;5053623;28;20082;-82
2021/09/17 12:45:59;;;;;;;3.08;1.27;;;20.20;97.00;;;;;;5056955;28;20052;-81
2021/09/17 12:48:32;;;;;;;2.60;1.30;;;20.30;97.40;;;;;;5059091;28;20556;-81
2021/09/17 12:50:59;;;;;;;5.60;1.50;;;20.40;96.80;;;;;;5050361;28;20563;-81